Time;durP1;ratioP1;P1;durP2;ratioP2;P2;SDS_P1;SDS_P2;PMS_P1;PMS_P2;Temp;Humidity;BMP_temperature;BMP_pressure;BME280_temperature;BME280_humidity;BME280_pressure;Samples;Min_cycle;Max_cycle;Signal;HPM_P1;HPM_P2
2024/04/15 00:02:21;;;;;;;2.70;1.30;;;23.70;54.70;;;;;;5451929;26;20231;-71
2024/04/15 00:04:46;;;;;;;2.03;1.30;;;23.70;54.60;;;;;;5451987;26;20219;-71
2024/04/15 00:07:12;;;;;;;4.40;1.70;;;23.70;54.70;;;;;;5451939;26;20767;-71
2024/04/15 00:09:38;;;;;;;1.40;1.13;;;23.70;54.60;;;;;;5452077;26;20219;-72
2024/04/15 00:12:04;;;;;;;3.17;1.40;;;23.70;54.60;;;;;;5449943;26;20292;-70
2024/04/15 00:14:29;;;;;;;1.53;1.17;;;23.70;54.60;;;;;;5451825;26;20266;-71
2024/04/15 00:16:55;;;;;;;2.13;1.30;;;23.70;54.60;;;;;;5451802;26;20449;-70
2024/04/15 00:19:20;;;;;;;1.20;1.10;;;23.70;54.60;;;;;;5452066;26;20227;-72
2024/04/15 00:21:46;;;;;;;1.50;1.40;;;23.70;54.60;;;;;;5451601;26;20274;-72
2024/04/15 00:24:11;;;;;;;1.10;1.00;;;23.70;54.60;;;;;;5451843;26;20223;-72
2024/04/15 00:26:37;;;;;;;2.10;1.20;;;23.70;54.60;;;;;;5451711;26;20227;-71
2024/04/15 00:29:03;;;;;;;1.60;1.37;;;23.70;54.60;;;;;;5451472;26;20300;-72
2024/04/15 00:31:28;;;;;;;1.40;1.30;;;23.70;54.60;;;;;;5451901;26;20630;-70
2024/04/15 00:33:56;;;;;;;1.43;1.03;;;23.70;54.60;;;;;;5451642;26;20220;-72
2024/04/15 00:36:22;;;;;;;1.47;1.20;;;23.70;54.60;;;;;;5451487;26;20287;-72
2024/04/15 00:38:47;;;;;;;1.57;1.07;;;23.70;54.70;;;;;;5449711;26;20572;-72
2024/04/15 00:41:13;;;;;;;1.73;1.20;;;23.70;54.70;;;;;;5449621;26;20231;-72
2024/04/15 00:43:38;;;;;;;1.63;1.30;;;23.70;54.60;;;;;;5451431;26;20215;-72
2024/04/15 00:46:04;;;;;;;1.23;1.10;;;23.70;54.60;;;;;;5451398;26;20215;-72
2024/04/15 00:48:31;;;;;;;1.30;1.13;;;23.60;54.60;;;;;;5451779;26;20572;-73
2024/04/15 00:50:56;;;;;;;1.67;1.23;;;23.70;54.70;;;;;;5451305;26;20236;-73
2024/04/15 00:53:22;;;;;;;1.10;1.00;;;23.60;54.60;;;;;;5451734;26;20499;-72
2024/04/15 00:55:52;;;;;;;1.47;1.33;;;23.60;54.60;;;;;;5451511;26;20327;-72
2024/04/15 00:58:19;;;;;;;1.70;1.30;;;23.70;54.70;;;;;;5451566;26;20449;-73
2024/04/15 01:00:45;;;;;;;1.40;1.10;;;23.70;54.70;;;;;;5451559;26;20469;-72
2024/04/15 01:03:11;;;;;;;1.93;1.40;;;23.70;54.70;;;;;;5450675;26;20563;-72
2024/04/15 01:05:38;;;;;;;1.40;1.10;;;23.70;54.70;;;;;;5450227;26;20324;-73
2024/04/15 01:08:05;;;;;;;1.47;1.17;;;23.70;54.70;;;;;;5451309;26;20456;-71
2024/04/15 01:10:31;;;;;;;1.30;1.13;;;23.70;54.70;;;;;;5450845;26;20520;-72
2024/04/15 01:12:56;;;;;;;1.27;1.10;;;23.70;54.70;;;;;;5451352;26;20967;-72
2024/04/15 01:15:22;;;;;;;1.40;1.07;;;23.70;54.70;;;;;;5451361;26;20571;-72
2024/04/15 01:17:47;;;;;;;1.60;1.30;;;23.60;54.60;;;;;;5451218;26;20274;-72
2024/04/15 01:20:13;;;;;;;1.40;1.20;;;23.60;54.60;;;;;;5450902;26;20265;-71
2024/04/15 01:22:50;;;;;;;2.17;1.70;;;23.60;54.60;;;;;;5450808;26;20231;-73
2024/04/15 01:25:15;;;;;;;1.93;1.10;;;23.70;54.60;;;;;;5450871;26;20298;-72
2024/04/15 01:27:41;;;;;;;1.50;1.13;;;23.60;54.60;;;;;;5450758;26;21015;-72
2024/04/15 01:30:09;;;;;;;1.60;1.17;;;23.60;54.60;;;;;;5450770;26;20249;-72
2024/04/15 01:32:34;;;;;;;1.27;1.00;;;23.60;54.60;;;;;;5450714;26;20281;-72
2024/04/15 01:35:00;;;;;;;1.60;0.90;;;23.70;54.70;;;;;;5450690;26;20448;-73
2024/04/15 01:37:27;;;;;;;1.60;1.20;;;23.60;54.60;;;;;;5450607;26;20227;-71
2024/04/15 01:39:53;;;;;;;1.47;1.10;;;23.60;54.60;;;;;;5450707;26;20275;-72
2024/04/15 01:42:18;;;;;;;2.03;1.30;;;23.60;54.60;;;;;;5450505;26;20509;-70
2024/04/15 01:44:44;;;;;;;1.30;1.10;;;23.60;54.60;;;;;;5448811;26;20707;-72
2024/04/15 01:47:09;;;;;;;2.13;1.20;;;23.60;54.60;;;;;;5450746;26;21004;-71
2024/04/15 01:49:35;;;;;;;1.50;1.10;;;23.60;54.60;;;;;;5450371;26;20283;-72
2024/04/15 01:52:00;;;;;;;1.50;1.30;;;23.60;54.60;;;;;;5450536;26;20295;-71
2024/04/15 01:54:26;;;;;;;1.40;1.30;;;23.60;54.60;;;;;;5450771;26;20331;-71
2024/04/15 01:56:52;;;;;;;1.20;1.07;;;23.60;54.60;;;;;;5450555;26;20628;-70
2024/04/15 01:59:17;;;;;;;1.53;1.23;;;23.60;54.70;;;;;;5450414;26;20270;-72
2024/04/15 02:01:43;;;;;;;1.43;1.23;;;23.60;54.60;;;;;;5450681;26;20278;-71
2024/04/15 02:04:08;;;;;;;1.70;1.10;;;23.60;54.60;;;;;;5450598;26;20277;-72
2024/04/15 02:06:34;;;;;;;1.40;0.97;;;23.60;54.70;;;;;;5450391;26;20687;-71
2024/04/15 02:08:59;;;;;;;1.40;1.30;;;23.60;54.70;;;;;;5450314;26;20215;-72
2024/04/15 02:11:25;;;;;;;1.30;1.07;;;23.60;54.70;;;;;;5450512;26;20275;-72
2024/04/15 02:13:50;;;;;;;1.00;0.90;;;23.60;54.70;;;;;;5450185;26;20219;-71
2024/04/15 02:16:17;;;;;;;1.60;1.20;;;23.60;54.70;;;;;;5449777;26;20349;-71
2024/04/15 02:18:42;;;;;;;1.17;1.07;;;23.60;54.70;;;;;;5450380;26;20223;-71
2024/04/15 02:21:08;;;;;;;1.20;0.97;;;23.60;54.70;;;;;;5450246;26;20461;-70
2024/04/15 02:23:33;;;;;;;1.40;1.23;;;23.60;54.70;;;;;;5450159;26;20953;-72
2024/04/15 02:25:59;;;;;;;1.70;1.10;;;23.60;54.80;;;;;;5448362;26;20713;-72
2024/04/15 02:28:24;;;;;;;1.00;0.90;;;23.60;54.80;;;;;;5448251;26;20223;-72
2024/04/15 02:30:50;;;;;;;1.57;1.27;;;23.60;54.70;;;;;;5450017;26;20330;-70
2024/04/15 02:33:16;;;;;;;1.57;1.17;;;23.60;54.80;;;;;;5450026;26;20215;-71
2024/04/15 02:35:41;;;;;;;1.40;0.80;;;23.60;54.80;;;;;;5449981;26;20224;-72
2024/04/15 02:38:07;;;;;;;1.57;1.07;;;23.60;54.70;;;;;;5449662;26;20270;-70
2024/04/15 02:40:33;;;;;;;1.40;1.20;;;23.60;54.70;;;;;;5449810;26;20219;-71
2024/04/15 02:43:00;;;;;;;1.10;0.90;;;23.60;54.70;;;;;;5449874;26;20292;-71
2024/04/15 02:45:25;;;;;;;1.40;1.30;;;23.60;54.80;;;;;;5450085;26;20512;-71
2024/04/15 02:47:51;;;;;;;1.53;1.10;;;23.60;54.80;;;;;;5450106;26;20966;-72
2024/04/15 02:50:16;;;;;;;1.20;1.10;;;23.60;54.80;;;;;;5447868;26;20794;-71
2024/04/15 02:52:42;;;;;;;1.83;1.43;;;23.60;54.80;;;;;;5449700;26;20319;-72
2024/04/15 02:55:08;;;;;;;1.40;1.20;;;23.60;54.80;;;;;;5449787;26;20220;-72
2024/04/15 02:57:33;;;;;;;1.50;1.20;;;23.60;54.80;;;;;;5449819;26;20680;-73
2024/04/15 02:59:59;;;;;;;1.30;1.20;;;23.60;54.80;;;;;;5447932;26;20265;-72
2024/04/15 03:02:24;;;;;;;1.80;1.30;;;23.60;54.80;;;;;;5449563;26;20281;-71
2024/04/15 03:04:50;;;;;;;1.20;1.10;;;23.60;54.70;;;;;;5449563;26;20822;-71
2024/04/15 03:07:16;;;;;;;1.00;0.90;;;23.60;54.70;;;;;;5449378;26;20270;-73
2024/04/15 03:09:41;;;;;;;1.20;1.10;;;23.60;54.70;;;;;;5449317;26;20219;-72
2024/04/15 03:12:07;;;;;;;1.30;1.10;;;23.60;54.70;;;;;;5447999;26;20242;-72
2024/04/15 03:14:32;;;;;;;1.57;1.17;;;23.60;55.20;;;;;;5449278;26;20270;-73
2024/04/15 03:16:58;;;;;;;1.30;1.10;;;23.60;54.70;;;;;;5449268;26;20272;-72
2024/04/15 03:19:24;;;;;;;1.50;1.33;;;23.60;54.70;;;;;;5449229;26;20269;-73
2024/04/15 03:21:49;;;;;;;2.33;1.20;;;23.60;54.70;;;;;;5447377;26;20236;-71
2024/04/15 03:24:15;;;;;;;1.93;1.00;;;23.60;54.70;;;;;;5449114;26;20219;-72
2024/04/15 03:26:40;;;;;;;1.53;1.17;;;23.60;54.70;;;;;;5449202;26;20223;-71
2024/04/15 03:29:06;;;;;;;1.10;0.90;;;23.60;54.70;;;;;;5452201;26;20243;-72
2024/04/15 03:31:32;;;;;;;1.63;1.13;;;23.60;54.70;;;;;;5452549;26;20238;-72
2024/04/15 03:33:57;;;;;;;1.20;0.90;;;23.60;54.70;;;;;;5452798;26;20223;-72
2024/04/15 03:36:23;;;;;;;1.17;1.07;;;23.60;54.70;;;;;;5452894;26;20616;-72
2024/04/15 03:38:49;;;;;;;1.13;1.00;;;23.60;54.70;;;;;;5451072;26;20211;-72
2024/04/15 03:41:15;;;;;;;1.27;1.10;;;23.60;54.70;;;;;;5452660;26;20729;-72
2024/04/15 03:43:40;;;;;;;1.10;1.00;;;23.60;54.70;;;;;;5450863;26;20581;-72
2024/04/15 03:46:06;;;;;;;1.10;1.00;;;23.60;54.70;;;;;;5452781;26;20263;-72
2024/04/15 03:48:31;;;;;;;1.53;1.13;;;23.60;54.70;;;;;;5451011;26;20226;-72
2024/04/15 03:50:57;;;;;;;1.40;1.10;;;23.60;54.70;;;;;;5452432;26;20753;-72
2024/04/15 03:53:23;;;;;;;1.20;1.10;;;23.60;54.80;;;;;;5452609;26;20266;-71
2024/04/15 03:55:55;;;;;;;1.37;1.20;;;23.60;54.70;;;;;;5452548;26;20219;-72
2024/04/15 03:58:21;;;;;;;6.20;1.87;;;23.60;54.70;;;;;;5452640;26;20215;-72
2024/04/15 04:00:49;;;;;;;1.10;0.90;;;23.60;54.80;;;;;;5450714;26;20521;-72
2024/04/15 04:03:15;;;;;;;1.37;1.10;;;23.60;54.80;;;;;;5452421;26;20279;-72
2024/04/15 04:05:41;;;;;;;1.40;1.17;;;23.60;54.80;;;;;;5452701;26;20504;-71
2024/04/15 04:08:07;;;;;;;1.23;1.10;;;23.60;54.80;;;;;;5452326;26;20279;-73
2024/04/15 04:10:32;;;;;;;1.30;1.00;;;23.60;54.80;;;;;;5452539;26;20573;-72
2024/04/15 04:12:58;;;;;;;1.50;1.20;;;23.60;54.80;;;;;;5452326;26;20661;-72
2024/04/15 04:15:25;;;;;;;1.47;1.30;;;23.60;54.80;;;;;;5452301;26;20223;-72
2024/04/15 04:17:50;;;;;;;1.37;1.27;;;23.60;54.80;;;;;;5452282;26;20232;-73
2024/04/15 04:20:16;;;;;;;1.40;1.00;;;23.60;54.80;;;;;;5452144;26;20495;-72
2024/04/15 04:22:41;;;;;;;1.17;1.00;;;23.60;54.80;;;;;;5451862;26;20266;-72
2024/04/15 04:25:07;;;;;;;1.40;1.03;;;23.60;54.80;;;;;;5452012;26;20223;-72
2024/04/15 04:27:33;;;;;;;1.57;1.20;;;23.60;54.80;;;;;;5452075;26;20239;-72
2024/04/15 04:29:58;;;;;;;1.20;1.00;;;23.60;54.80;;;;;;5451960;26;20227;-72
2024/04/15 04:32:24;;;;;;;1.27;1.10;;;23.60;54.80;;;;;;5451979;26;20249;-72
2024/04/15 04:34:50;;;;;;;1.80;1.10;;;23.60;54.80;;;;;;5450010;26;20717;-72
2024/04/15 04:37:15;;;;;;;1.90;1.50;;;23.60;54.80;;;;;;5451667;26;20266;-72
2024/04/15 04:39:41;;;;;;;1.57;1.20;;;23.60;54.70;;;;;;5451304;26;20270;-72
2024/04/15 04:42:06;;;;;;;1.63;1.33;;;23.60;54.70;;;;;;5451471;26;20339;-72
2024/04/15 04:44:32;;;;;;;1.37;1.10;;;23.60;54.70;;;;;;5451630;26;20265;-72
2024/04/15 04:46:57;;;;;;;1.73;1.40;;;23.60;54.70;;;;;;5451587;26;20257;-72
2024/04/15 04:49:23;;;;;;;1.97;1.50;;;23.60;54.70;;;;;;5451307;26;20219;-71
2024/04/15 04:51:48;;;;;;;1.13;1.03;;;23.60;54.70;;;;;;5451363;26;20344;-73
2024/04/15 04:54:14;;;;;;;1.40;1.10;;;23.60;54.60;;;;;;5451370;26;20698;-72
2024/04/15 04:56:40;;;;;;;1.60;1.40;;;23.60;54.60;;;;;;5451330;26;21084;-72
2024/04/15 04:59:06;;;;;;;1.50;1.40;;;23.60;54.60;;;;;;5451301;26;20709;-73
2024/04/15 05:01:31;;;;;;;1.40;1.10;;;23.60;54.60;;;;;;5451062;26;20268;-72
2024/04/15 05:03:57;;;;;;;1.53;1.00;;;23.70;54.70;;;;;;5451154;26;20706;-71
2024/04/15 05:06:22;;;;;;;1.90;1.30;;;23.70;54.70;;;;;;5450831;26;20223;-72
2024/04/15 05:08:48;;;;;;;1.60;1.40;;;23.60;54.60;;;;;;5451472;26;20219;-72
2024/04/15 05:11:16;;;;;;;1.30;1.13;;;23.60;54.60;;;;;;5451132;26;20240;-73
2024/04/15 05:13:41;;;;;;;1.60;1.20;;;23.70;54.70;;;;;;5451375;26;20276;-72
2024/04/15 05:16:12;;;;;;;1.40;1.23;;;23.70;54.70;;;;;;5451149;26;20449;-72
2024/04/15 05:18:39;;;;;;;1.30;1.20;;;23.70;54.70;;;;;;5450872;26;20715;-71
2024/04/15 05:21:10;;;;;;;1.63;1.27;;;23.60;54.60;;;;;;5450239;26;20509;-72
2024/04/15 05:23:36;;;;;;;2.03;1.27;;;23.70;54.70;;;;;;5450989;26;20445;-73
2024/04/15 05:26:01;;;;;;;2.23;1.27;;;23.70;54.70;;;;;;5450770;26;21442;-72
2024/04/15 05:28:27;;;;;;;1.40;1.00;;;23.70;54.70;;;;;;5450615;26;20231;-72
2024/04/15 05:30:55;;;;;;;1.53;1.13;;;23.70;54.70;;;;;;5450779;26;20278;-72
2024/04/15 05:33:21;;;;;;;2.00;1.20;;;23.70;54.70;;;;;;5451006;26;20288;-72
2024/04/15 05:35:47;;;;;;;1.83;1.10;;;23.70;54.70;;;;;;5450796;26;20540;-72
2024/04/15 05:38:13;;;;;;;1.40;1.10;;;23.70;54.80;;;;;;5450744;26;20509;-73
2024/04/15 05:40:39;;;;;;;1.83;1.50;;;23.70;54.70;;;;;;5450501;26;20223;-72
2024/04/15 05:43:09;;;;;;;2.57;1.20;;;23.70;54.70;;;;;;5450823;26;20509;-70
2024/04/15 05:45:35;;;;;;;1.70;1.40;;;23.70;54.70;;;;;;5450671;26;20746;-72
2024/04/15 05:48:01;;;;;;;1.70;1.10;;;23.70;54.70;;;;;;5450798;26;20452;-72
2024/04/15 05:50:28;;;;;;;2.07;1.20;;;23.70;55.20;;;;;;5449574;26;20228;-73
2024/04/15 05:52:53;;;;;;;1.43;1.30;;;23.70;54.70;;;;;;5450853;26;20279;-72
2024/04/15 05:55:19;;;;;;;1.93;1.50;;;23.70;54.70;;;;;;5450559;26;20437;-71
2024/04/15 05:57:45;;;;;;;1.30;1.03;;;23.70;54.70;;;;;;5450384;26;20616;-71
2024/04/15 06:00:12;;;;;;;2.23;1.20;;;23.70;54.70;;;;;;5450382;26;20452;-71
2024/04/15 06:02:37;;;;;;;1.43;1.10;;;23.70;54.70;;;;;;5450622;26;20235;-72
2024/04/15 06:05:03;;;;;;;1.60;1.27;;;23.70;54.70;;;;;;5450315;26;21027;-72
2024/04/15 06:07:29;;;;;;;1.77;1.50;;;23.70;54.70;;;;;;5450393;26;20266;-71
2024/04/15 06:09:55;;;;;;;1.50;1.27;;;23.70;54.70;;;;;;5450199;26;20760;-71
2024/04/15 06:12:20;;;;;;;3.73;1.37;;;23.70;54.70;;;;;;5450117;26;20713;-72
2024/04/15 06:14:46;;;;;;;3.00;1.97;;;23.70;54.70;;;;;;5450190;26;20298;-70
2024/04/15 06:17:11;;;;;;;1.30;1.20;;;23.70;54.70;;;;;;5450051;26;20331;-71
2024/04/15 06:19:38;;;;;;;1.97;1.20;;;23.70;54.70;;;;;;5449970;26;20605;-71
2024/04/15 06:22:04;;;;;;;8.50;1.43;;;23.70;54.60;;;;;;5450016;26;20235;-73
2024/04/15 06:24:30;;;;;;;1.53;1.13;;;23.70;54.60;;;;;;5449984;26;20842;-71
2024/04/15 06:26:57;;;;;;;1.50;1.30;;;23.70;54.60;;;;;;5449729;26;20804;-72
2024/04/15 06:29:24;;;;;;;1.33;1.23;;;23.70;54.60;;;;;;5449829;26;20501;-71
2024/04/15 06:31:50;;;;;;;2.10;1.40;;;23.80;54.70;;;;;;5449756;26;20465;-70
2024/04/15 06:34:18;;;;;;;1.83;1.30;;;23.80;54.60;;;;;;5449889;26;20449;-71
2024/04/15 06:36:43;;;;;;;1.50;1.33;;;23.80;54.60;;;;;;5449710;26;20421;-71
2024/04/15 06:39:09;;;;;;;1.87;1.43;;;23.80;54.60;;;;;;5449942;26;20508;-71
2024/04/15 06:41:35;;;;;;;3.47;1.13;;;23.80;54.60;;;;;;5449895;26;20286;-71
2024/04/15 06:44:00;;;;;;;2.00;1.20;;;23.80;54.60;;;;;;5450167;26;20320;-71
2024/04/15 06:46:26;;;;;;;1.80;1.37;;;23.80;54.60;;;;;;5449911;26;20568;-70
2024/04/15 06:48:52;;;;;;;2.07;1.37;;;23.80;54.60;;;;;;5449859;26;20219;-70
2024/04/15 06:51:17;;;;;;;1.63;1.20;;;23.80;54.60;;;;;;5449757;26;20468;-71
2024/04/15 06:53:43;;;;;;;1.50;1.20;;;23.80;54.60;;;;;;5449693;26;20301;-71
2024/04/15 06:56:09;;;;;;;3.60;1.60;;;23.90;54.70;;;;;;5449751;26;20317;-70
2024/04/15 06:58:35;;;;;;;1.30;1.03;;;23.90;54.70;;;;;;5449487;26;20309;-71
2024/04/15 07:01:01;;;;;;;1.47;1.20;;;23.90;54.70;;;;;;5449210;26;20464;-71
2024/04/15 07:03:27;;;;;;;2.40;1.00;;;23.90;54.70;;;;;;5449400;26;21023;-71
2024/04/15 07:05:52;;;;;;;1.57;1.43;;;23.90;54.70;;;;;;5449463;26;20220;-70
2024/04/15 07:08:19;;;;;;;1.40;1.03;;;23.90;54.70;;;;;;5449545;26;20223;-72
2024/04/15 07:10:45;;;;;;;1.67;1.20;;;23.90;54.70;;;;;;5449139;26;20618;-70
2024/04/15 07:13:11;;;;;;;2.20;1.50;;;23.90;54.70;;;;;;5449340;26;20449;-71
2024/04/15 07:15:37;;;;;;;2.30;1.30;;;23.90;54.70;;;;;;5449388;26;20497;-70
2024/04/15 07:18:02;;;;;;;1.37;1.20;;;23.90;54.70;;;;;;5449208;26;20331;-70
2024/04/15 07:20:28;;;;;;;1.50;1.20;;;23.90;54.70;;;;;;5448984;26;20712;-71
2024/04/15 07:22:54;;;;;;;3.10;1.30;;;23.90;54.70;;;;;;5447325;26;20278;-71
2024/04/15 07:25:19;;;;;;;1.37;1.23;;;23.90;54.70;;;;;;5447164;26;20317;-71
2024/04/15 07:27:45;;;;;;;1.40;1.10;;;24.00;54.70;;;;;;5448821;26;20231;-71
2024/04/15 07:30:10;;;;;;;1.43;1.17;;;24.00;54.80;;;;;;5449102;26;20714;-70
2024/04/15 07:32:37;;;;;;;1.80;1.20;;;24.00;54.80;;;;;;5448741;26;20243;-70
2024/04/15 07:35:04;;;;;;;1.57;1.17;;;24.00;54.80;;;;;;5448758;26;20710;-72
2024/04/15 07:37:30;;;;;;;1.47;1.17;;;24.00;54.80;;;;;;5448845;26;20441;-70
2024/04/15 07:39:55;;;;;;;2.63;1.20;;;24.00;54.80;;;;;;5449074;26;20505;-72
2024/04/15 07:42:21;;;;;;;2.03;1.30;;;24.00;54.70;;;;;;5448675;26;20235;-70
2024/04/15 07:44:48;;;;;;;1.90;1.20;;;24.00;54.80;;;;;;5448728;26;20947;-71
2024/04/15 07:47:13;;;;;;;1.70;1.50;;;24.00;54.80;;;;;;5448663;26;20265;-73
2024/04/15 07:49:40;;;;;;;1.23;1.13;;;24.00;54.80;;;;;;5448522;26;20512;-71
2024/04/15 07:52:05;;;;;;;1.37;1.10;;;24.00;54.70;;;;;;5448479;26;20235;-71
2024/04/15 07:54:32;;;;;;;1.30;1.00;;;24.00;54.80;;;;;;5448721;26;20557;-71
2024/04/15 07:56:58;;;;;;;1.47;1.33;;;24.00;54.80;;;;;;5448572;26;20262;-72
2024/04/15 07:59:23;;;;;;;1.90;1.03;;;24.00;54.80;;;;;;5448394;26;20967;-72
2024/04/15 08:01:49;;;;;;;1.67;1.10;;;24.00;54.80;;;;;;5448248;26;20507;-72
2024/04/15 08:04:15;;;;;;;2.07;1.30;;;24.00;54.70;;;;;;5448347;26;20227;-72
2024/04/15 08:06:41;;;;;;;5.13;1.40;;;24.00;54.80;;;;;;5448478;26;20219;-71
2024/04/15 08:09:07;;;;;;;1.87;1.40;;;24.00;54.80;;;;;;5448377;26;20555;-71
2024/04/15 08:11:36;;;;;;;1.60;1.20;;;24.10;54.80;;;;;;5448302;26;21031;-70
2024/04/15 08:14:02;;;;;;;1.93;1.43;;;24.10;54.80;;;;;;5450592;26;20223;-71
2024/04/15 08:16:28;;;;;;;1.47;1.20;;;24.10;54.80;;;;;;5452287;26;20845;-72
2024/04/15 08:18:54;;;;;;;1.80;1.50;;;24.10;54.80;;;;;;5451802;26;20444;-72
2024/04/15 08:21:20;;;;;;;2.03;1.27;;;24.10;54.80;;;;;;5451561;26;20231;-71
2024/04/15 08:23:46;;;;;;;1.77;1.17;;;24.10;54.80;;;;;;5451910;26;20275;-72
2024/04/15 08:26:12;;;;;;;1.40;1.17;;;24.10;54.80;;;;;;5451720;26;20594;-72
2024/04/15 08:28:38;;;;;;;1.97;1.10;;;24.10;54.80;;;;;;5451675;26;20464;-71
2024/04/15 08:31:04;;;;;;;2.57;1.67;;;24.10;54.80;;;;;;5451413;26;20461;-72
2024/04/15 08:33:30;;;;;;;3.20;1.10;;;24.10;54.80;;;;;;5451721;26;20265;-71
2024/04/15 08:35:55;;;;;;;1.77;1.20;;;24.10;54.80;;;;;;5451843;26;20265;-71
2024/04/15 08:38:24;;;;;;;1.50;1.17;;;24.10;54.80;;;;;;5452006;26;20223;-73
2024/04/15 08:40:56;;;;;;;1.30;0.90;;;24.10;55.30;;;;;;5451764;26;20282;-71
2024/04/15 08:43:26;;;;;;;1.13;0.90;;;24.10;54.80;;;;;;5452108;26;20429;-72
2024/04/15 08:46:03;;;;;;;1.30;1.10;;;24.10;54.80;;;;;;5451747;26;20559;-72
2024/04/15 08:48:29;;;;;;;1.83;1.23;;;24.10;54.80;;;;;;5451846;26;20441;-71
2024/04/15 08:50:56;;;;;;;1.63;1.17;;;24.10;54.80;;;;;;5451610;26;20505;-72
2024/04/15 08:53:22;;;;;;;2.50;1.40;;;24.10;54.80;;;;;;5451626;26;20223;-72
2024/04/15 08:55:48;;;;;;;1.87;1.33;;;24.10;54.80;;;;;;5451803;26;20553;-71
2024/04/15 08:58:13;;;;;;;1.20;1.10;;;24.20;54.90;;;;;;5451677;26;20449;-70
2024/04/15 09:00:40;;;;;;;1.70;1.00;;;24.10;54.80;;;;;;5451825;26;20297;-71
2024/04/15 09:03:07;;;;;;;1.50;1.03;;;24.20;54.90;;;;;;5451525;26;20232;-72
2024/04/15 09:05:33;;;;;;;2.00;1.00;;;24.20;54.90;;;;;;5451917;26;20827;-71
2024/04/15 09:07:59;;;;;;;2.30;1.20;;;24.20;54.90;;;;;;5451688;26;20480;-71
2024/04/15 09:10:26;;;;;;;1.50;1.10;;;24.20;54.90;;;;;;5451174;26;20516;-70
2024/04/15 09:12:52;;;;;;;1.57;1.00;;;24.20;54.90;;;;;;5451138;26;20219;-70
2024/04/15 09:15:20;;;;;;;1.30;1.00;;;24.20;54.90;;;;;;5451208;26;20520;-69
2024/04/15 09:17:47;;;;;;;1.90;1.20;;;24.20;54.80;;;;;;5451310;26;20227;-69
2024/04/15 09:20:13;;;;;;;1.97;1.00;;;24.20;54.80;;;;;;5451286;26;20515;-70
2024/04/15 09:22:39;;;;;;;1.63;1.00;;;24.20;54.80;;;;;;5451156;26;20468;-72
2024/04/15 09:25:05;;;;;;;1.83;1.10;;;24.20;54.80;;;;;;5450148;26;20441;-71
2024/04/15 09:27:31;;;;;;;1.50;0.93;;;24.20;54.80;;;;;;5449111;26;20544;-70
2024/04/15 09:29:59;;;;;;;1.73;1.10;;;24.20;54.80;;;;;;5451350;26;20457;-71
2024/04/15 09:32:25;;;;;;;1.43;1.03;;;24.20;54.80;;;;;;5451012;26;20457;-71
2024/04/15 09:35:02;;;;;;;4.03;1.40;;;24.20;54.80;;;;;;5451265;26;20492;-71
2024/04/15 09:37:31;;;;;;;1.57;1.20;;;24.20;55.30;;;;;;5451170;26;20512;-72
2024/04/15 09:39:57;;;;;;;1.53;1.10;;;24.20;54.80;;;;;;5450788;26;20445;-72
2024/04/15 09:42:23;;;;;;;1.40;1.00;;;24.20;54.80;;;;;;5451119;26;21415;-72
2024/04/15 09:44:49;;;;;;;2.80;1.57;;;24.20;54.80;;;;;;5450929;26;20219;-70
2024/04/15 09:47:19;;;;;;;1.70;1.00;;;24.20;54.80;;;;;;5450769;26;20441;-73
2024/04/15 09:49:46;;;;;;;2.87;1.37;;;24.20;54.80;;;;;;5450788;26;20509;-72
2024/04/15 09:52:19;;;;;;;1.20;0.90;;;24.20;54.80;;;;;;5450455;26;20982;-71
2024/04/15 09:54:46;;;;;;;1.87;1.33;;;24.20;54.80;;;;;;5448937;26;20923;-71
2024/04/15 09:57:19;;;;;;;2.70;1.30;;;24.20;54.80;;;;;;5450585;26;20498;-71
2024/04/15 09:59:53;;;;;;;1.47;1.10;;;24.20;54.80;;;;;;5450808;26;20496;-71
2024/04/15 10:02:35;;;;;;;1.37;1.10;;;24.30;54.90;;;;;;5450540;26;20464;-71
2024/04/15 10:05:17;;;;;;;1.60;1.20;;;24.20;54.80;;;;;;5450710;26;20534;-71
2024/04/15 10:07:45;;;;;;;1.07;0.90;;;24.30;54.90;;;;;;5450582;26;20440;-71
2024/04/15 10:10:11;;;;;;;1.20;1.10;;;24.30;54.90;;;;;;5450692;26;20892;-72
2024/04/15 10:12:36;;;;;;;1.93;1.43;;;24.20;54.80;;;;;;5450200;26;20520;-72
2024/04/15 10:15:03;;;;;;;2.50;1.10;;;24.30;54.90;;;;;;5450448;26;20219;-72
2024/04/15 10:17:28;;;;;;;2.17;1.20;;;24.30;54.90;;;;;;5450314;26;20269;-70
2024/04/15 10:19:54;;;;;;;1.30;1.13;;;24.30;54.90;;;;;;5450283;26;20951;-73
2024/04/15 10:22:23;;;;;;;1.10;1.00;;;24.30;54.90;;;;;;5450279;26;20260;-71
2024/04/15 10:24:48;;;;;;;1.97;1.20;;;24.30;54.90;;;;;;5450161;26;20650;-72
2024/04/15 10:27:14;;;;;;;1.40;1.00;;;24.30;54.90;;;;;;5450074;26;20570;-72
2024/04/15 10:29:40;;;;;;;2.13;1.10;;;24.30;54.90;;;;;;5450148;26;20556;-71
2024/04/15 10:32:07;;;;;;;1.23;1.00;;;24.30;55.40;;;;;;5450162;26;20231;-71
2024/04/15 10:34:40;;;;;;;1.47;1.00;;;24.30;54.80;;;;;;5450174;26;20497;-74
2024/04/15 10:37:09;;;;;;;1.10;0.90;;;24.30;54.80;;;;;;5449710;26;20449;-72
2024/04/15 10:39:43;;;;;;;2.63;1.40;;;24.30;54.90;;;;;;5450314;26;20453;-70
2024/04/15 10:42:09;;;;;;;1.53;1.30;;;24.30;54.80;;;;;;5449940;26;20501;-72
2024/04/15 10:44:35;;;;;;;1.40;0.87;;;24.30;54.90;;;;;;5448377;26;20441;-72
2024/04/15 10:47:00;;;;;;;2.03;1.00;;;24.30;54.80;;;;;;5450256;26;20227;-72
2024/04/15 10:49:27;;;;;;;2.10;1.03;;;24.30;54.80;;;;;;5450029;26;20546;-72
2024/04/15 10:51:53;;;;;;;1.30;1.00;;;24.30;54.80;;;;;;5449859;26;20848;-72
2024/04/15 10:54:18;;;;;;;1.50;1.03;;;24.30;54.80;;;;;;5449821;26;20433;-72
2024/04/15 10:56:44;;;;;;;1.53;1.03;;;24.30;54.80;;;;;;5449867;26;20720;-71
2024/04/15 10:59:16;;;;;;;1.47;1.20;;;24.30;54.80;;;;;;5449770;26;20620;-72
2024/04/15 11:01:45;;;;;;;1.33;1.23;;;24.30;54.80;;;;;;5449638;26;20239;-71
2024/04/15 11:04:11;;;;;;;1.33;1.00;;;24.30;54.80;;;;;;5450009;26;20498;-71
2024/04/15 11:06:37;;;;;;;1.40;1.10;;;24.30;54.80;;;;;;5449838;26;20465;-73
2024/04/15 11:09:04;;;;;;;1.37;1.13;;;24.30;54.80;;;;;;5449701;26;20575;-70
2024/04/15 11:11:31;;;;;;;2.17;1.20;;;24.30;54.80;;;;;;5449669;26;20290;-72
2024/04/15 11:13:57;;;;;;;1.67;1.30;;;24.30;54.70;;;;;;5449415;26;20488;-72
2024/04/15 11:16:24;;;;;;;1.40;0.90;;;24.30;54.70;;;;;;5449474;26;20492;-71
2024/04/15 11:18:50;;;;;;;1.60;1.20;;;24.40;54.80;;;;;;5449401;26;20632;-73
2024/04/15 11:21:16;;;;;;;1.50;1.03;;;24.40;54.80;;;;;;5449233;26;20528;-73
2024/04/15 11:23:42;;;;;;;1.47;1.00;;;24.40;54.80;;;;;;5449451;26;20980;-72
2024/04/15 11:26:11;;;;;;;1.30;1.00;;;24.40;54.80;;;;;;5449116;26;20516;-72
2024/04/15 11:28:37;;;;;;;1.27;1.17;;;24.40;54.80;;;;;;5447095;26;20251;-71
2024/04/15 11:31:03;;;;;;;1.30;0.97;;;24.40;54.80;;;;;;5449084;26;20469;-72
2024/04/15 11:33:29;;;;;;;2.03;1.30;;;24.40;54.80;;;;;;5450832;26;20453;-72
2024/04/15 11:35:55;;;;;;;1.20;1.00;;;24.40;54.80;;;;;;5449325;26;20497;-72
2024/04/15 11:38:21;;;;;;;1.57;1.10;;;24.40;54.80;;;;;;5450003;26;20679;-70
2024/04/15 11:40:51;;;;;;;2.40;1.13;;;24.40;54.70;;;;;;5451057;26;20227;-70
2024/04/15 11:43:18;;;;;;;1.53;1.30;;;24.40;54.70;;;;;;5450400;26;20864;-71
2024/04/15 11:45:54;;;;;;;1.43;1.33;;;24.40;54.70;;;;;;5450339;26;20536;-71
2024/04/15 11:48:25;;;;;;;8.60;4.53;;;24.40;54.70;;;;;;5450990;26;20436;-71
2024/04/15 11:50:53;;;;;;;24.23;11.80;;;24.40;54.70;;;;;;5452369;26;20468;-68
2024/04/15 11:53:20;;;;;;;40.30;17.67;;;24.40;54.70;;;;;;5452336;26;20504;-68
2024/04/15 11:55:46;;;;;;;57.73;24.60;;;24.40;54.70;;;;;;5452412;26;20587;-69
2024/04/15 11:58:12;;;;;;;80.83;33.47;;;24.40;54.70;;;;;;5452339;26;20452;-69
2024/04/15 12:00:38;;;;;;;103.37;39.17;;;24.40;54.70;;;;;;5452289;26;20227;-69
2024/04/15 12:03:04;;;;;;;115.43;46.90;;;24.40;54.70;;;;;;5450416;26;20223;-70
2024/04/15 12:05:29;;;;;;;132.00;50.57;;;24.40;54.70;;;;;;5450651;26;20257;-69
2024/04/15 12:07:56;;;;;;;118.60;46.90;;;24.40;54.70;;;;;;5452216;26;20963;-71
2024/04/15 12:10:22;;;;;;;130.77;51.87;;;24.40;54.70;;;;;;5451919;26;20265;-69
2024/04/15 12:12:47;;;;;;;145.20;56.67;;;24.40;54.70;;;;;;5452390;26;20453;-69
2024/04/15 12:15:13;;;;;;;140.43;56.63;;;24.40;54.70;;;;;;5452013;26;20386;-70
2024/04/15 12:17:39;;;;;;;139.83;55.37;;;24.40;54.70;;;;;;5452051;26;20231;-68
2024/04/15 12:20:05;;;;;;;127.27;55.70;;;24.40;54.70;;;;;;5451904;26;20227;-69
2024/04/15 12:22:31;;;;;;;133.33;56.70;;;24.40;54.70;;;;;;5452135;26;20759;-69
2024/04/15 12:24:57;;;;;;;139.50;57.10;;;24.40;54.70;;;;;;5452015;26;20576;-69
2024/04/15 12:27:22;;;;;;;134.10;55.13;;;24.40;54.70;;;;;;5452007;26;21010;-68
2024/04/15 12:29:48;;;;;;;136.50;54.83;;;24.40;54.70;;;;;;5452089;26;20223;-69
2024/04/15 12:32:14;;;;;;;141.83;54.30;;;24.40;54.70;;;;;;5452034;26;20247;-70
2024/04/15 12:34:39;;;;;;;129.33;50.37;;;24.40;54.70;;;;;;5451770;26;20226;-70
2024/04/15 12:37:05;;;;;;;126.60;53.93;;;24.40;54.70;;;;;;5452105;26;20781;-69
2024/04/15 12:39:31;;;;;;;132.27;55.37;;;24.40;54.70;;;;;;5452211;26;20250;-70
2024/04/15 12:41:57;;;;;;;135.77;56.60;;;24.40;54.70;;;;;;5452216;26;20251;-68